Time;durP1;ratioP1;P1;durP2;ratioP2;P2;SDS_P1;SDS_P2;PMS_P1;PMS_P2;Temp;Humidity;BMP_temperature;BMP_pressure;BME280_temperature;BME280_humidity;BME280_pressure;Samples;Min_cycle;Max_cycle;Signal;HPM_P1;HPM_P2
2022/08/27 00:01:15;;;;;;;27.25;19.10;;;;;;;22.15;58.14;100202.28;5084515;28;20370;-55
2022/08/27 00:03:43;;;;;;;26.95;19.95;;;;;;;22.03;58.20;100199.44;5102912;28;20024;-56
2022/08/27 00:06:17;;;;;;;29.23;19.50;;;;;;;21.82;58.53;100161.16;5090526;28;20028;-56
2022/08/27 00:08:44;;;;;;;25.67;18.58;;;;;;;22.15;58.10;100202.28;5084072;28;20024;-56
2022/08/27 00:11:12;;;;;;;28.23;19.98;;;;;;;22.05;58.52;100199.34;5084083;28;20024;-56
2022/08/27 00:13:38;;;;;;;26.77;20.15;;;;;;;22.09;58.01;100194.72;5085344;28;20031;-56
2022/08/27 00:16:08;;;;;;;24.60;19.25;;;;;;;22.00;58.11;100183.78;5103987;28;20023;-57
2022/08/27 00:18:34;;;;;;;27.33;19.38;;;;;;;22.06;58.09;100198.38;5086621;28;20043;-55
2022/08/27 00:21:01;;;;;;;26.98;18.83;;;;;;;22.02;58.67;100204.81;5096774;28;20029;-55
2022/08/27 00:23:26;;;;;;;26.52;19.52;;;;;;;21.80;59.01;100189.44;5096491;28;20059;-55
2022/08/27 00:25:52;;;;;;;25.98;18.95;;;;;;;21.95;58.57;100200.81;5086012;28;20035;-56
2022/08/27 00:28:18;;;;;;;26.58;19.98;;;;;;;21.98;58.44;100200.66;5104205;28;20028;-55
2022/08/27 00:30:44;;;;;;;27.70;20.00;;;;;;;22.01;58.26;100208.38;5104440;28;20035;-55
2022/08/27 00:33:09;;;;;;;27.85;19.42;;;;;;;21.97;58.31;100210.34;5090130;28;20269;-56
2022/08/27 00:35:36;;;;;;;25.90;20.73;;;;;;;21.93;58.60;100205.34;5083839;28;20024;-55
2022/08/27 00:38:03;;;;;;;28.95;20.15;;;;;;;21.83;58.44;100198.00;5083720;28;20247;-55
2022/08/27 00:40:28;;;;;;;27.98;19.55;;;;;;;21.88;58.67;100206.47;5083208;28;20106;-55
2022/08/27 00:42:54;;;;;;;29.70;20.45;;;;;;;21.83;58.41;100197.16;5104012;28;20043;-55
2022/08/27 00:45:22;;;;;;;26.90;19.80;;;;;;;21.47;58.89;100159.69;5102806;28;20061;-55
2022/08/27 00:47:53;;;;;;;28.83;22.02;;;;;;;21.61;59.09;100192.31;5093007;28;20137;-55
2022/08/27 00:50:27;;;;;;;31.87;20.27;;;;;;;21.63;59.29;100207.09;5083678;28;20353;-57
2022/08/27 00:52:57;;;;;;;29.65;20.85;;;;;;;21.61;58.96;100216.88;5083589;28;20028;-54
2022/08/27 00:55:32;;;;;;;29.08;21.52;;;;;;;21.23;59.27;100156.69;5083741;28;20021;-54
2022/08/27 00:58:10;;;;;;;27.95;20.83;;;;;;;21.53;59.69;100204.19;5078859;28;20268;-55
2022/08/27 01:00:37;;;;;;;26.98;20.05;;;;;;;21.53;59.22;100205.94;5080701;28;20040;-55
2022/08/27 01:03:03;;;;;;;29.05;20.40;;;;;;;21.41;59.62;100196.94;5083700;28;20048;-55
2022/08/27 01:05:30;;;;;;;31.52;21.80;;;;;;;21.45;59.75;100195.84;5083568;28;20039;-54
2022/08/27 01:08:02;;;;;;;26.40;20.95;;;;;;;21.46;59.70;100217.75;5083338;28;20089;-54
2022/08/27 01:10:29;;;;;;;28.13;21.58;;;;;;;21.43;59.52;100218.78;5082902;28;20091;-54
2022/08/27 01:12:55;;;;;;;33.63;21.77;;;;;;;21.38;59.82;100216.41;5082040;28;20280;-56
2022/08/27 01:15:24;;;;;;;26.55;21.08;;;;;;;21.36;59.88;100230.59;5083109;28;20028;-54
2022/08/27 01:17:50;;;;;;;32.63;22.33;;;;;;;21.30;59.87;100218.63;5094033;28;20024;-54
2022/08/27 01:20:19;;;;;;;32.03;21.25;;;;;;;21.01;60.36;100167.66;5097557;28;20069;-54
2022/08/27 01:23:14;;;;;;;28.52;21.42;;;;;;;21.24;60.79;100215.53;5083167;28;20032;-54
2022/08/27 01:25:43;;;;;;;29.42;22.80;;;;;;;21.23;60.50;100217.28;5075369;28;20344;-55
2022/08/27 01:28:11;;;;;;;27.55;21.77;;;;;;;21.29;60.22;100216.09;5087465;28;20052;-53
2022/08/27 01:30:39;;;;;;;32.08;22.40;;;;;;;21.29;60.25;100219.59;5087221;28;20092;-53
2022/08/27 01:33:16;;;;;;;26.15;21.05;;;;;;;21.24;60.12;100215.53;5087196;28;20212;-54
2022/08/27 01:35:45;;;;;;;30.20;22.75;;;;;;;21.01;60.21;100176.38;5087309;28;20046;-55
2022/08/27 01:38:11;;;;;;;32.25;22.67;;;;;;;21.29;60.25;100221.38;5087058;28;20083;-54
2022/08/27 01:40:37;;;;;;;31.88;23.73;;;;;;;21.20;60.17;100218.31;5087180;28;20031;-55
2022/08/27 01:43:04;;;;;;;41.00;28.42;;;;;;;21.11;60.72;100229.38;5087417;28;20036;-55
2022/08/27 01:45:39;;;;;;;35.88;24.77;;;;;;;21.11;60.86;100232.03;5087099;28;20030;-55
2022/08/27 01:48:06;;;;;;;32.15;23.35;;;;;;;21.16;60.51;100230.00;5086977;28;20031;-55
2022/08/27 01:50:35;;;;;;;35.85;26.20;;;;;;;21.10;60.88;100240.84;5086899;28;20344;-55
2022/08/27 01:53:07;;;;;;;36.90;25.92;;;;;;;20.82;60.54;100184.50;5085671;28;20105;-55
2022/08/27 01:55:33;;;;;;;32.05;25.02;;;;;;;21.07;60.88;100233.13;5086567;28;20328;-56
2022/08/27 01:57:59;;;;;;;40.75;27.70;;;;;;;21.03;61.02;100234.22;5091335;28;20028;-56
2022/08/27 02:00:31;;;;;;;39.58;27.52;;;;;;;20.75;60.74;100183.13;5086824;28;20027;-56
2022/08/27 02:02:57;;;;;;;33.47;26.60;;;;;;;20.99;61.08;100238.84;5086608;28;20032;-56
2022/08/27 02:05:23;;;;;;;33.40;27.13;;;;;;;21.00;60.98;100237.88;5086669;28;20033;-55
2022/08/27 02:07:49;;;;;;;36.10;27.05;;;;;;;20.93;61.08;100231.25;5086438;28;20032;-55
2022/08/27 02:10:18;;;;;;;34.00;26.23;;;;;;;20.95;61.12;100242.56;5085270;28;20017;-55
2022/08/27 02:12:44;;;;;;;41.90;26.90;;;;;;;20.92;61.49;100233.97;5086423;28;20221;-55
2022/08/27 02:15:11;;;;;;;34.08;26.08;;;;;;;20.80;61.53;100225.84;5086532;28;20024;-55
2022/08/27 02:17:37;;;;;;;35.30;26.80;;;;;;;20.86;61.68;100236.03;5095040;28;20050;-55
2022/08/27 02:20:05;;;;;;;36.05;28.60;;;;;;;20.87;61.46;100247.41;5102741;28;20028;-55
2022/08/27 02:22:31;;;;;;;41.30;30.15;;;;;;;20.85;61.17;100244.88;5086702;28;20031;-55
2022/08/27 02:24:57;;;;;;;41.42;30.40;;;;;;;20.88;61.48;100242.97;5070140;28;20021;-54
2022/08/27 02:27:23;;;;;;;40.40;30.05;;;;;;;20.85;61.17;100238.75;5066492;28;20052;-54
2022/08/27 02:29:50;;;;;;;46.92;32.67;;;;;;;20.81;61.67;100245.97;5072450;28;20314;-55
2022/08/27 02:32:16;;;;;;;44.95;31.77;;;;;;;20.75;61.98;100241.06;5077099;28;20043;-55
2022/08/27 02:34:41;;;;;;;46.25;33.30;;;;;;;20.79;61.65;100244.34;5105603;28;20028;-55
2022/08/27 02:37:07;;;;;;;42.15;33.20;;;;;;;20.79;61.80;100245.22;5085431;28;20025;-57
2022/08/27 02:39:33;;;;;;;50.53;36.15;;;;;;;20.75;62.12;100241.06;5082248;28;20032;-57
2022/08/27 02:41:59;;;;;;;49.10;36.60;;;;;;;20.78;61.71;100235.59;5097637;28;20088;-55
2022/08/27 02:44:25;;;;;;;65.68;47.75;;;;;;;20.76;61.54;100245.34;5099707;28;20306;-55
2022/08/27 02:46:51;;;;;;;63.03;48.22;;;;;;;20.75;61.49;100233.16;5086187;28;20087;-55
2022/08/27 02:49:16;;;;;;;57.72;44.78;;;;;;;20.76;61.31;100228.72;5085944;28;20027;-53
2022/08/27 02:51:43;;;;;;;64.35;48.03;;;;;;;20.80;61.79;100244.25;5103351;28;20032;-53
2022/08/27 02:54:09;;;;;;;65.63;49.50;;;;;;;20.66;61.58;100237.09;5093232;28;20115;-55
2022/08/27 02:56:35;;;;;;;70.68;52.58;;;;;;;20.65;61.95;100245.06;5077310;28;20040;-56
2022/08/27 02:59:00;;;;;;;65.63;49.75;;;;;;;20.72;62.06;100245.63;5088604;28;20205;-56
2022/08/27 03:01:26;;;;;;;76.75;55.30;;;;;;;20.72;61.83;100248.25;5106021;28;20046;-55
2022/08/27 03:03:52;;;;;;;68.78;50.53;;;;;;;20.75;61.94;100250.72;5105748;28;20048;-55
2022/08/27 03:06:18;;;;;;;70.18;51.30;;;;;;;20.75;61.97;100248.94;5091446;28;20210;-55
2022/08/27 03:08:44;;;;;;;67.20;49.40;;;;;;;20.78;61.72;100255.81;5094869;28;20039;-55
2022/08/27 03:11:09;;;;;;;62.80;49.78;;;;;;;20.79;61.82;100254.88;5105709;28;20372;-55
2022/08/27 03:13:36;;;;;;;75.45;53.75;;;;;;;20.77;62.09;100248.88;5105682;28;20027;-55
2022/08/27 03:16:02;;;;;;;74.65;56.45;;;;;;;20.77;61.95;100259.41;5085433;28;20050;-55
2022/08/27 03:18:28;;;;;;;75.78;55.78;;;;;;;20.78;62.34;100261.06;5085276;28;20024;-55
2022/08/27 03:20:55;;;;;;;72.32;53.85;;;;;;;20.77;62.62;100256.75;5085367;28;20024;-55
2022/08/27 03:23:25;;;;;;;75.43;55.58;;;;;;;20.55;62.52;100214.91;5085455;28;20020;-55
2022/08/27 03:25:56;;;;;;;83.05;61.08;;;;;;;20.83;62.63;100259.88;5086750;28;20032;-55
2022/08/27 03:28:24;;;;;;;78.22;59.15;;;;;;;20.91;61.89;100262.09;5105373;28;20220;-55
2022/08/27 03:30:53;;;;;;;84.15;64.53;;;;;;;20.52;62.07;100218.56;5087069;28;20032;-55
2022/08/27 03:33:20;;;;;;;81.30;61.75;;;;;;;20.59;62.00;100217.28;5085003;28;20028;-54
2022/08/27 03:35:47;;;;;;;80.25;64.13;;;;;;;20.90;61.81;100260.41;5084166;28;20213;-54
2022/08/27 03:38:14;;;;;;;81.95;65.45;;;;;;;20.91;61.94;100262.09;5069405;28;20020;-55
2022/08/27 03:40:42;;;;;;;88.65;65.40;;;;;;;20.97;61.85;100271.47;5083069;28;20032;-55
2022/08/27 03:43:10;;;;;;;85.25;62.08;;;;;;;20.96;62.28;100270.59;5077765;28;20088;-55
2022/08/27 03:45:36;;;;;;;77.93;59.20;;;;;;;20.90;62.32;100256.94;5101085;28;20059;-54
2022/08/27 03:48:02;;;;;;;75.32;58.25;;;;;;;21.01;62.61;100263.28;5093616;28;20025;-55
2022/08/27 03:50:27;;;;;;;77.65;56.03;;;;;;;21.10;62.57;100267.19;5090436;28;20023;-55
2022/08/27 03:52:53;;;;;;;75.78;59.05;;;;;;;21.11;63.09;100265.44;5103042;28;20224;-55
2022/08/27 03:55:19;;;;;;;80.57;61.20;;;;;;;21.15;62.36;100259.91;5079976;28;20020;-55
2022/08/27 03:57:44;;;;;;;148.68;108.78;;;;;;;21.09;59.43;100268.16;5081836;28;20040;-55
2022/08/27 04:00:14;;;;;;;134.32;103.55;;;;;;;21.08;59.62;100253.28;5084401;28;20190;-56
2022/08/27 04:02:41;;;;;;;131.50;101.30;;;;;;;21.21;60.28;100258.69;5066143;28;20016;-55
2022/08/27 04:05:12;;;;;;;149.82;116.82;;;;;;;20.86;58.55;100214.09;5083750;28;20025;-56
2022/08/27 04:07:40;;;;;;;150.98;115.13;;;;;;;21.19;58.85;100256.16;5084521;28;20028;-56
2022/08/27 04:10:08;;;;;;;146.88;111.45;;;;;;;21.11;58.43;100221.50;5084041;28;20321;-57
2022/08/27 04:12:34;;;;;;;137.38;105.60;;;;;;;21.52;58.91;100268.38;5084175;28;20092;-55
2022/08/27 04:15:00;;;;;;;142.90;106.90;;;;;;;21.62;58.55;100279.22;5084162;28;20016;-56
2022/08/27 04:17:26;;;;;;;125.47;100.05;;;;;;;21.66;59.18;100278.13;5084161;28;20031;-57
2022/08/27 04:19:52;;;;;;;119.00;89.40;;;;;;;21.60;60.66;100280.25;5085348;28;20021;-56
2022/08/27 04:22:18;;;;;;;109.20;83.63;;;;;;;21.61;60.82;100276.69;5104370;28;20016;-57
2022/08/27 04:24:43;;;;;;;111.55;81.35;;;;;;;21.73;60.40;100283.84;5104386;28;20031;-57
2022/08/27 04:27:10;;;;;;;117.60;91.32;;;;;;;21.78;60.31;100283.63;5092178;28;20040;-58
2022/08/27 04:29:36;;;;;;;128.98;92.38;;;;;;;21.69;60.41;100283.22;5082749;28;20032;-57
2022/08/27 04:32:02;;;;;;;115.80;88.43;;;;;;;21.73;60.07;100281.22;5083812;28;20221;-57
2022/08/27 04:34:29;;;;;;;119.35;88.55;;;;;;;21.80;60.39;100281.72;5084095;28;20024;-58
2022/08/27 04:36:56;;;;;;;109.30;85.78;;;;;;;21.78;61.02;100273.06;5080399;28;20024;-56
2022/08/27 04:39:22;;;;;;;116.65;90.90;;;;;;;21.87;60.29;100273.34;5066836;28;20063;-56
2022/08/27 04:41:49;;;;;;;123.63;89.72;;;;;;;21.86;59.60;100255.84;5081989;28;20020;-56
2022/08/27 04:44:15;;;;;;;121.95;92.65;;;;;;;22.08;59.91;100275.66;5099400;28;20031;-56
2022/08/27 04:46:41;;;;;;;122.90;95.60;;;;;;;22.09;59.14;100260.66;5083745;28;20028;-57
2022/08/27 04:49:10;;;;;;;116.90;93.72;;;;;;;21.90;59.38;100222.22;5103694;28;20023;-56
2022/08/27 04:51:36;;;;;;;141.25;106.90;;;;;;;22.23;59.49;100272.09;5087533;28;20028;-56
2022/08/27 04:54:05;;;;;;;141.63;101.15;;;;;;;22.17;59.86;100263.69;5083342;28;20040;-53
2022/08/27 04:56:32;;;;;;;143.90;106.45;;;;;;;22.18;59.49;100252.22;5086009;28;20044;-54
2022/08/27 04:58:57;;;;;;;143.23;110.80;;;;;;;22.39;58.06;100271.19;5082948;28;20032;-54
2022/08/27 05:01:25;;;;;;;137.00;103.80;;;;;;;22.48;59.04;100290.91;5082987;28;20036;-54
2022/08/27 05:03:51;;;;;;;138.32;107.25;;;;;;;22.50;59.09;100276.66;5083669;28;20317;-55
2022/08/27 05:06:18;;;;;;;169.55;126.88;;;;;;;22.54;57.52;100275.50;5094148;28;20358;-56
2022/08/27 05:08:44;;;;;;;164.05;128.38;;;;;;;22.56;56.87;100271.00;5083348;28;20108;-55
2022/08/27 05:11:13;;;;;;;164.45;128.38;;;;;;;22.60;57.26;100266.34;5081881;28;20036;-55
2022/08/27 05:13:43;;;;;;;172.40;129.98;;;;;;;22.60;56.97;100270.81;5083275;28;20337;-54
2022/08/27 05:16:12;;;;;;;171.80;136.32;;;;;;;22.30;56.17;100226.84;5083273;28;20074;-54
2022/08/27 05:18:39;;;;;;;171.63;135.38;;;;;;;22.57;56.35;100271.84;5083182;28;20025;-55
2022/08/27 05:21:06;;;;;;;164.10;127.97;;;;;;;22.79;56.31;100279.28;5083153;28;20032;-55
2022/08/27 05:23:32;;;;;;;175.02;132.32;;;;;;;22.92;56.27;100271.41;5083391;28;20055;-56
2022/08/27 05:25:59;;;;;;;161.00;124.05;;;;;;;22.91;56.40;100272.34;5082909;28;20017;-55
2022/08/27 05:28:26;;;;;;;154.50;120.80;;;;;;;22.91;55.93;100259.97;5083472;28;20358;-55
2022/08/27 05:30:55;;;;;;;159.00;119.38;;;;;;;22.87;56.10;100241.78;5083302;28;20036;-55
2022/08/27 05:33:24;;;;;;;153.85;120.72;;;;;;;23.16;55.96;100279.59;5096265;28;20026;-57
2022/08/27 05:35:55;;;;;;;166.43;124.90;;;;;;;23.24;55.84;100287.03;5094313;28;20024;-56
2022/08/27 05:38:23;;;;;;;175.52;129.25;;;;;;;23.36;55.67;100280.94;5082963;28;20024;-55
2022/08/27 05:40:50;;;;;;;161.70;126.43;;;;;;;23.45;55.44;100284.78;5083035;28;20024;-55
2022/08/27 05:43:17;;;;;;;169.55;129.00;;;;;;;23.53;55.57;100293.06;5076017;28;20305;-55
2022/08/27 05:45:45;;;;;;;162.75;127.80;;;;;;;23.60;54.80;100286.41;5077488;28;20056;-57
2022/08/27 05:48:12;;;;;;;165.52;127.97;;;;;;;23.67;54.84;100273.63;5075764;28;20036;-57
2022/08/27 05:50:39;;;;;;;168.43;131.07;;;;;;;23.76;54.97;100290.69;5082335;28;20218;-54
2022/08/27 05:53:05;;;;;;;159.65;130.20;;;;;;;23.81;54.66;100288.56;5084639;28;20024;-54
2022/08/27 05:55:43;;;;;;;191.40;140.85;;;;;;;23.73;55.10;100282.97;5083645;28;20098;-55
2022/08/27 06:01:03;;;;;;;174.70;139.40;;;;;;;23.58;54.92;100251.28;5082295;28;20043;-54
2022/08/27 06:01:03;;;;;;;180.13;144.73;;;;;;;23.71;54.51;100285.69;5067736;28;20056;-54
2022/08/27 06:03:30;;;;;;;182.43;140.98;;;;;;;23.77;54.63;100276.47;5082618;28;20021;-54
2022/08/27 06:06:07;;;;;;;180.43;140.90;;;;;;;23.72;53.88;100231.84;5092016;28;20087;-55
2022/08/27 06:08:34;;;;;;;182.32;143.73;;;;;;;23.98;53.40;100281.31;5095855;28;20040;-55
2022/08/27 06:11:00;;;;;;;175.65;137.65;;;;;;;24.05;52.57;100274.66;5064571;28;20039;-55
2022/08/27 06:13:28;;;;;;;178.13;142.55;;;;;;;24.19;52.38;100263.97;5085966;28;20020;-56
2022/08/27 06:16:04;;;;;;;194.68;154.38;;;;;;;24.17;51.85;100249.13;5085245;28;20078;-56
2022/08/27 06:18:31;;;;;;;194.88;151.73;;;;;;;24.44;51.42;100278.13;5085059;28;20025;-57
2022/08/27 06:20:57;;;;;;;188.02;149.25;;;;;;;24.58;51.35;100271.88;5095173;28;20305;-56
2022/08/27 06:23:23;;;;;;;181.40;145.85;;;;;;;24.70;51.06;100271.03;5104967;28;20028;-56
2022/08/27 06:25:49;;;;;;;180.60;138.95;;;;;;;24.83;50.06;100267.50;5104741;28;20023;-56
2022/08/27 06:28:15;;;;;;;187.07;144.52;;;;;;;24.83;49.21;100271.00;5064645;28;20032;-56
2022/08/27 06:30:41;;;;;;;182.07;144.48;;;;;;;24.88;49.32;100265.38;5075171;28;20096;-56
2022/08/27 06:33:06;;;;;;;168.88;136.73;;;;;;;25.03;49.71;100274.88;5076348;28;20024;-56
2022/08/27 06:35:35;;;;;;;183.98;147.27;;;;;;;25.09;49.23;100277.06;5085635;28;20031;-56
2022/08/27 06:38:01;;;;;;;169.18;140.18;;;;;;;25.17;48.89;100276.50;5087225;28;20063;-56
2022/08/27 06:40:26;;;;;;;173.15;142.75;;;;;;;25.23;48.89;100275.22;5066255;28;20029;-56
2022/08/27 06:42:52;;;;;;;179.63;142.98;;;;;;;25.31;48.70;100273.72;5099747;28;20027;-56
2022/08/27 06:45:18;;;;;;;167.85;135.05;;;;;;;25.34;47.44;100277.97;5093850;28;20020;-56
2022/08/27 06:47:43;;;;;;;182.23;145.00;;;;;;;25.42;47.72;100264.94;5085538;28;20028;-56
2022/08/27 06:50:09;;;;;;;181.45;143.70;;;;;;;25.52;47.93;100274.88;5085709;28;20027;-56
2022/08/27 06:52:35;;;;;;;165.43;137.57;;;;;;;25.59;48.09;100258.38;5085323;28;20021;-56
2022/08/27 06:55:01;;;;;;;190.45;145.52;;;;;;;25.68;48.50;100267.44;5085588;28;20031;-56
2022/08/27 06:57:28;;;;;;;178.05;140.65;;;;;;;25.77;47.79;100263.28;5085036;28;20362;-56
2022/08/27 06:59:54;;;;;;;152.35;124.47;;;;;;;25.84;46.78;100269.81;5077945;28;20028;-57
2022/08/27 07:02:20;;;;;;;133.93;105.10;;;;;;;25.87;43.10;100264.25;5083218;28;20216;-57
2022/08/27 07:04:46;;;;;;;104.25;83.90;;;;;;;25.83;41.52;100260.16;5084817;28;20091;-56
2022/08/27 07:07:12;;;;;;;103.57;82.00;;;;;;;26.11;42.62;100256.25;5105309;28;20020;-57
2022/08/27 07:09:38;;;;;;;101.63;81.47;;;;;;;26.27;42.64;100261.19;5090922;28;20037;-58
2022/08/27 07:12:05;;;;;;;99.28;79.20;;;;;;;26.33;40.93;100262.53;5085043;28;20020;-57
2022/08/27 07:14:31;;;;;;;107.70;86.78;;;;;;;26.45;41.47;100258.06;5085214;28;20032;-58
2022/08/27 07:16:58;;;;;;;105.72;85.00;;;;;;;26.53;41.35;100256.47;5084217;28;20031;-59
2022/08/27 07:19:24;;;;;;;110.95;85.32;;;;;;;26.65;42.00;100262.66;5079028;28;20024;-58
2022/08/27 07:21:49;;;;;;;118.82;95.75;;;;;;;26.69;41.97;100261.47;5082558;28;20054;-59
2022/08/27 07:24:15;;;;;;;119.82;93.50;;;;;;;26.74;42.59;100258.44;5080370;28;20024;-57
2022/08/27 07:26:43;;;;;;;119.90;95.80;;;;;;;26.76;41.27;100250.34;5080059;28;20128;-58
2022/08/27 07:29:11;;;;;;;109.85;89.88;;;;;;;26.67;42.42;100214.69;5081057;28;20055;-59
2022/08/27 07:31:37;;;;;;;113.55;90.43;;;;;;;27.00;42.98;100258.97;5084913;28;20283;-58
2022/08/27 07:34:04;;;;;;;102.13;88.03;;;;;;;26.95;40.06;100247.88;5083045;28;20032;-57
2022/08/27 07:36:32;;;;;;;107.13;84.97;;;;;;;27.10;41.06;100253.75;5082770;28;20017;-58
2022/08/27 07:38:57;;;;;;;116.47;89.78;;;;;;;27.16;40.50;100258.59;5084540;28;20088;-58
2022/08/27 07:41:23;;;;;;;115.07;90.53;;;;;;;27.21;40.97;100242.25;5085415;28;20042;-56
2022/08/27 07:46:34;;;;;;;111.47;90.65;;;;;;;27.37;40.99;100253.31;5075141;28;20437;-56
2022/08/27 07:49:12;;;;;;;108.05;86.65;;;;;;;27.45;39.42;100254.50;5081990;28;20191;-57
2022/08/27 07:51:38;;;;;;;112.70;89.60;;;;;;;27.55;39.82;100252.78;5084305;28;20157;-56
2022/08/27 07:54:03;;;;;;;103.85;83.82;;;;;;;27.66;39.00;100250.06;5093918;28;20031;-57
2022/08/27 07:56:29;;;;;;;97.30;80.25;;;;;;;27.79;40.08;100256.97;5084777;28;20032;-57
2022/08/27 07:58:55;;;;;;;102.05;81.05;;;;;;;27.86;39.97;100251.03;5083897;28;20270;-59
2022/08/27 08:01:22;;;;;;;91.95;77.50;;;;;;;27.92;38.67;100252.31;5084516;28;20023;-58
2022/08/27 08:03:49;;;;;;;88.97;73.20;;;;;;;28.02;38.95;100247.91;5084167;28;20034;-58
2022/08/27 08:06:15;;;;;;;100.45;82.75;;;;;;;27.95;39.30;100222.75;5084381;28;20113;-58
2022/08/27 08:08:41;;;;;;;96.85;77.32;;;;;;;28.21;39.69;100244.50;5084161;28;20024;-59
2022/08/27 08:11:08;;;;;;;86.78;70.60;;;;;;;28.25;37.44;100245.09;5085735;28;20050;-58
2022/08/27 08:13:35;;;;;;;90.32;73.22;;;;;;;28.33;38.67;100247.94;5104273;28;20027;-58
2022/08/27 08:16:00;;;;;;;90.57;73.00;;;;;;;28.33;38.18;100242.59;5086470;28;20088;-59
2022/08/27 08:18:27;;;;;;;92.97;70.35;;;;;;;28.34;37.84;100238.09;5084006;28;20025;-59
2022/08/27 08:20:59;;;;;;;91.25;68.35;;;;;;;28.41;38.38;100249.91;5092024;28;20317;-60
2022/08/27 08:23:25;;;;;;;78.72;64.00;;;;;;;28.46;36.24;100242.38;5100158;28;20024;-58
2022/08/27 08:25:51;;;;;;;72.40;60.13;;;;;;;28.61;37.46;100241.97;5083928;28;20024;-58
2022/08/27 08:28:17;;;;;;;80.78;62.38;;;;;;;28.64;38.24;100231.06;5082552;28;20043;-58
2022/08/27 08:30:42;;;;;;;79.20;64.55;;;;;;;28.71;37.29;100237.53;5081670;28;20060;-57
2022/08/27 08:33:08;;;;;;;80.70;65.53;;;;;;;28.72;36.45;100242.72;5082558;28;20024;-58
2022/08/27 08:35:37;;;;;;;73.90;59.40;;;;;;;28.64;37.62;100197.25;5080394;28;20024;-59
2022/08/27 08:38:03;;;;;;;80.35;64.00;;;;;;;28.85;36.88;100236.31;5084577;28;20031;-59
2022/08/27 08:40:41;;;;;;;79.68;63.05;;;;;;;28.95;37.36;100226.50;5104011;28;20020;-59
2022/08/27 08:43:23;;;;;;;78.75;62.35;;;;;;;28.83;36.26;100190.25;5085643;28;20025;-59
2022/08/27 08:45:50;;;;;;;69.90;57.67;;;;;;;29.01;36.32;100191.25;5078973;28;20028;-59
2022/08/27 08:48:21;;;;;;;68.85;58.50;;;;;;;29.16;36.62;100185.50;5083562;28;20236;-58
2022/08/27 08:51:12;;;;;;;73.70;60.47;;;;;;;29.09;35.25;100179.91;5090389;28;20401;-58
2022/08/27 08:54:01;;;;;;;72.38;60.15;;;;;;;29.42;35.71;100193.81;5084627;28;20032;-60
2022/08/27 08:56:53;;;;;;;68.70;54.15;;;;;;;29.70;34.71;100232.13;5083333;28;20032;-60
2022/08/27 08:59:34;;;;;;;68.82;52.13;;;;;;;29.88;34.82;100210.03;5082891;28;20313;-60
2022/08/27 09:01:59;;;;;;;56.15;49.72;;;;;;;30.03;35.19;100205.91;5082455;28;20259;-60
2022/08/27 09:04:26;;;;;;;58.70;48.20;;;;;;;30.17;33.56;100211.75;5079720;28;20032;-60
2022/08/27 09:07:00;;;;;;;60.45;51.13;;;;;;;30.17;33.83;100201.06;5088466;28;20028;-62
2022/08/27 09:09:45;;;;;;;56.83;48.80;;;;;;;30.38;33.99;100200.81;5081174;28;20024;-61
2022/08/27 09:12:23;;;;;;;62.88;52.60;;;;;;;30.39;33.58;100194.50;5081686;28;20081;-62
2022/08/27 09:14:51;;;;;;;52.13;43.13;;;;;;;30.36;32.48;100200.97;5081043;28;20028;-62
2022/08/27 09:17:16;;;;;;;46.88;39.75;;;;;;;30.46;31.10;100207.13;5077709;28;20027;-61
2022/08/27 09:19:42;;;;;;;47.28;40.50;;;;;;;30.42;30.73;100195.06;5083304;28;20087;-62
2022/08/27 09:22:49;;;;;;;45.90;37.65;;;;;;;30.69;31.70;100198.69;5083107;28;20025;-62
2022/08/27 09:25:30;;;;;;;45.90;37.17;;;;;;;30.52;31.63;100170.09;5042189;28;20156;-60
2022/08/27 09:27:58;;;;;;;;;;;;;;;30.77;30.28;100201.47;5073742;28;20108;-61
2022/08/27 09:30:27;;;;;;;41.40;34.83;;;;;;;30.58;31.09;100164.16;5093663;28;20264;-61
2022/08/27 09:33:03;;;;;;;47.40;37.53;;;;;;;30.70;30.12;100205.75;5095627;28;20233;-61
2022/08/27 09:35:41;;;;;;;37.90;31.00;;;;;;;30.64;29.56;100179.59;5081961;28;20062;-59
2022/08/27 09:38:08;;;;;;;43.60;32.85;;;;;;;30.84;31.07;100198.19;5083246;28;20028;-58
2022/08/27 09:40:43;;;;;;;36.20;29.88;;;;;;;30.73;29.46;100186.72;5082646;28;20238;-58
2022/08/27 09:43:14;;;;;;;39.70;30.67;;;;;;;30.79;29.74;100202.13;5100845;28;20332;-60
2022/08/27 09:45:46;;;;;;;;;;;;;;;30.81;30.80;100194.81;5089435;28;20062;-62
2022/08/27 09:48:19;;;;;;;;;;;;;;;30.72;30.16;100193.03;5086317;28;19913;-61
2022/08/27 09:50:56;;;;;;;41.45;31.40;;;;;;;30.88;31.26;100194.19;5086491;28;19939;-62
2022/08/27 09:53:30;;;;;;;36.55;29.65;;;;;;;30.55;29.64;100159.09;5088663;28;20027;-61
2022/08/27 09:56:02;;;;;;;36.75;30.75;;;;;;;30.53;30.17;100164.63;5090912;28;20040;-62
2022/08/27 09:58:46;;;;;;;35.47;29.77;;;;;;;30.86;30.58;100201.56;5081600;28;20305;-61
2022/08/27 10:01:20;;;;;;;31.90;28.48;;;;;;;30.57;30.36;100152.63;5100888;28;20059;-61
2022/08/27 10:03:47;;;;;;;38.83;29.20;;;;;;;30.84;30.49;100190.97;5090919;28;20423;-62
2022/08/27 10:06:13;;;;;;;33.92;29.65;;;;;;;30.79;29.55;100186.09;5085790;28;20031;-62
2022/08/27 10:08:41;;;;;;;31.13;26.85;;;;;;;30.81;29.76;100189.47;5086009;28;20025;-62
2022/08/27 10:11:14;;;;;;;30.73;26.50;;;;;;;30.64;29.66;100147.50;5086126;28;20035;-61
2022/08/27 10:13:56;;;;;;;31.90;25.45;;;;;;;30.81;29.85;100152.03;5086459;28;20042;-61
2022/08/27 10:16:57;;;;;;;31.20;24.75;;;;;;;31.01;29.47;100183.97;5106016;28;20215;-61
2022/08/27 10:19:37;;;;;;;29.48;24.65;;;;;;;30.79;30.24;100154.00;5087168;28;20055;-62
2022/08/27 10:22:15;;;;;;;28.30;25.23;;;;;;;30.97;30.15;100183.44;5085055;28;20249;-61
2022/08/27 10:24:52;;;;;;;28.17;25.17;;;;;;;30.71;29.21;100139.72;5086160;28;20112;-61
2022/08/27 10:27:30;;;;;;;31.27;26.88;;;;;;;30.81;29.50;100138.66;5086157;28;20117;-62
2022/08/27 10:30:09;;;;;;;29.27;25.65;;;;;;;31.15;29.60;100180.78;5093642;28;20220;-61
2022/08/27 10:32:40;;;;;;;28.90;25.17;;;;;;;31.06;29.91;100176.34;5101958;28;20039;-62
2022/08/27 10:35:35;;;;;;;32.08;26.10;;;;;;;30.99;29.78;100173.41;5086172;28;20214;-62
2022/08/27 10:38:20;;;;;;;29.95;25.55;;;;;;;30.96;29.01;100184.41;5082782;28;20103;-61
2022/08/27 10:40:52;;;;;;;26.85;23.90;;;;;;;31.03;28.64;100171.31;5066020;28;20088;-62
2022/08/27 10:43:31;;;;;;;26.65;23.77;;;;;;;31.09;28.99;100172.53;5103284;28;20035;-62
2022/08/27 10:46:35;;;;;;;28.55;23.17;;;;;;;31.14;29.22;100168.41;5089743;28;20020;-61
2022/08/27 10:49:24;;;;;;;19.40;17.42;;;;;;;31.26;29.33;100171.66;5085712;28;20024;-62
2022/08/27 10:52:00;;;;;;;17.83;16.05;;;;;;;31.11;30.03;100136.59;5085533;28;20028;-62
2022/08/27 10:54:42;;;;;;;15.98;14.27;;;;;;;31.09;28.55;100122.50;5085630;28;20291;-62
2022/08/27 10:57:21;;;;;;;16.92;15.18;;;;;;;31.12;28.96;100127.53;5085881;28;20236;-62
2022/08/27 11:00:12;;;;;;;17.58;14.15;;;;;;;31.25;28.04;100137.84;5084454;28;20032;-62
2022/08/27 11:03:02;;;;;;;16.50;13.40;;;;;;;31.08;27.83;100112.78;5085639;28;20021;-61
2022/08/27 11:05:49;;;;;;;16.30;14.80;;;;;;;31.36;28.44;100152.00;5085533;28;20032;-61
2022/08/27 11:08:27;;;;;;;18.48;14.90;;;;;;;31.19;28.57;100129.63;5085549;28;20047;-62
2022/08/27 11:11:03;;;;;;;16.92;15.23;;;;;;;31.23;28.52;100122.97;5085425;28;20031;-62
2022/08/27 11:13:37;;;;;;;21.27;16.10;;;;;;;31.40;29.11;100153.38;5085228;28;20052;-63
2022/08/27 11:16:15;;;;;;;20.27;16.13;;;;;;;31.21;28.51;100109.75;5085283;28;20032;-63
2022/08/27 11:19:07;;;;;;;19.13;15.98;;;;;;;31.22;28.80;100110.56;5084407;28;20117;-63